createdAt,value
2019-03-19T00:01:37.317Z,88.20
2019-03-19T00:03:41.733Z,88.70
2019-03-19T00:05:46.201Z,89.00
2019-03-19T00:07:50.617Z,89.10
2019-03-19T00:09:55.849Z,88.70
2019-03-19T00:12:00.850Z,89.00
2019-03-19T00:14:05.976Z,89.40
2019-03-19T00:16:10.329Z,89.30
2019-03-19T00:18:14.879Z,89.00
2019-03-19T00:20:19.305Z,89.10
2019-03-19T00:22:25.660Z,89.00
2019-03-19T00:24:28.106Z,88.80
2019-03-19T00:26:32.563Z,88.80
2019-03-19T00:28:38.991Z,88.70
2019-03-19T00:30:41.384Z,88.70
2019-03-19T00:32:45.815Z,88.60
2019-03-19T00:34:50.261Z,88.40
2019-03-19T00:36:54.657Z,88.50
2019-03-19T00:38:59.043Z,88.30
2019-03-19T00:41:03.495Z,88.00
2019-03-19T00:43:07.905Z,88.50
2019-03-19T00:45:12.383Z,88.80
2019-03-19T00:47:16.774Z,89.00
2019-03-19T00:49:21.199Z,89.20
2019-03-19T00:51:25.635Z,89.20
2019-03-19T00:53:30.063Z,89.60
2019-03-19T00:55:40.577Z,89.80
2019-03-19T00:57:38.964Z,90.10
2019-03-19T00:59:43.354Z,90.10
2019-03-19T01:01:47.744Z,90.00
2019-03-19T01:03:52.114Z,89.80
2019-03-19T01:05:56.510Z,89.70
2019-03-19T01:08:00.955Z,90.00
2019-03-19T01:10:05.999Z,90.10
2019-03-19T01:12:10.365Z,90.40
2019-03-19T01:14:14.767Z,90.60
2019-03-19T01:16:19.177Z,90.90
2019-03-19T01:18:29.925Z,91.00
2019-03-19T01:20:34.364Z,91.00
2019-03-19T01:22:38.909Z,90.90
2019-03-19T01:24:43.289Z,90.70
2019-03-19T01:26:47.704Z,90.60
2019-03-19T01:28:52.053Z,90.70
2019-03-19T01:30:56.415Z,90.80
2019-03-19T01:33:00.909Z,90.90
2019-03-19T01:35:05.900Z,91.00
2019-03-19T01:37:10.351Z,90.90
2019-03-19T01:39:14.740Z,91.20
2019-03-19T01:41:19.140Z,91.10
2019-03-19T01:43:23.578Z,91.00
2019-03-19T01:45:27.921Z,91.00
2019-03-19T01:47:32.338Z,90.90
2019-03-19T01:49:36.754Z,90.90
2019-03-19T01:51:41.174Z,91.00
2019-03-19T01:53:45.554Z,90.90
2019-03-19T01:55:49.986Z,90.90
2019-03-19T01:57:54.315Z,90.90
2019-03-19T01:59:58.764Z,90.90
2019-03-19T02:02:03.168Z,91.10
2019-03-19T02:04:07.614Z,91.30
2019-03-19T02:06:12.030Z,91.40
2019-03-19T02:08:16.423Z,91.40
2019-03-19T02:10:20.814Z,91.40
2019-03-19T02:12:25.222Z,91.50
2019-03-19T02:14:29.574Z,91.70
2019-03-19T02:16:33.918Z,91.90
2019-03-19T02:18:38.378Z,91.80
2019-03-19T02:20:42.783Z,91.80
2019-03-19T02:22:47.160Z,92.00
2019-03-19T02:24:51.586Z,91.90
2019-03-19T02:26:55.943Z,91.80
2019-03-19T02:29:00.359Z,91.90
2019-03-19T02:31:04.783Z,92.10
2019-03-19T02:33:09.251Z,92.20
2019-03-19T02:35:13.701Z,92.20
2019-03-19T02:37:18.066Z,92.20
2019-03-19T02:39:22.505Z,92.30
2019-03-19T02:41:26.876Z,92.30
2019-03-19T02:43:31.278Z,92.20
2019-03-19T02:45:35.678Z,92.20
2019-03-19T02:47:40.163Z,92.20
2019-03-19T02:49:44.540Z,92.10
2019-03-19T02:51:48.940Z,92.20
2019-03-19T02:53:53.290Z,92.40
2019-03-19T02:55:57.733Z,92.40
2019-03-19T02:58:02.181Z,92.40
2019-03-19T03:00:06.880Z,92.70
2019-03-19T03:02:11.345Z,92.90
2019-03-19T03:04:15.800Z,92.80
2019-03-19T03:06:20.265Z,92.60
2019-03-19T03:08:24.744Z,92.40
2019-03-19T03:10:29.180Z,92.20
2019-03-19T03:12:33.635Z,91.90
2019-03-19T03:14:37.990Z,92.00
2019-03-19T03:16:42.403Z,91.90
2019-03-19T03:18:46.783Z,91.90
2019-03-19T03:20:51.209Z,92.10
2019-03-19T03:22:55.646Z,92.00
2019-03-19T03:24:59.995Z,92.20
2019-03-19T03:27:04.435Z,92.30
2019-03-19T03:29:08.800Z,92.40
2019-03-19T03:31:13.248Z,92.70
2019-03-19T03:33:17.701Z,92.80
2019-03-19T03:35:22.177Z,93.20
2019-03-19T03:37:26.723Z,93.00
2019-03-19T03:39:31.116Z,93.10
2019-03-19T03:41:35.531Z,92.90
2019-03-19T03:43:39.991Z,93.10
2019-03-19T03:45:44.385Z,93.10
2019-03-19T03:47:48.790Z,93.20
2019-03-19T03:49:53.254Z,93.20
2019-03-19T03:51:57.659Z,93.20
2019-03-19T03:54:02.148Z,93.00
2019-03-19T03:56:06.559Z,92.80
2019-03-19T03:58:10.931Z,92.70
2019-03-19T04:00:15.417Z,92.60
2019-03-19T04:02:19.859Z,92.60
2019-03-19T04:04:24.383Z,92.50
2019-03-19T04:06:28.803Z,92.60
2019-03-19T04:08:33.184Z,92.60
2019-03-19T04:10:37.880Z,92.70
2019-03-19T04:12:42.354Z,92.90
2019-03-19T04:14:47.095Z,92.80
2019-03-19T04:16:51.235Z,93.00
2019-03-19T04:18:55.660Z,93.20
2019-03-19T04:21:00.027Z,93.20
2019-03-19T04:23:04.517Z,93.20
2019-03-19T04:25:09.049Z,93.20
2019-03-19T04:27:16.288Z,93.40
2019-03-19T04:29:17.874Z,93.30
2019-03-19T04:31:22.281Z,93.20
2019-03-19T04:33:26.657Z,93.30
2019-03-19T04:35:31.141Z,93.40
2019-03-19T04:37:35.606Z,93.50
2019-03-19T04:39:40.072Z,93.40
2019-03-19T04:41:44.455Z,93.40
2019-03-19T04:43:48.831Z,93.30
2019-03-19T04:45:53.211Z,93.30
2019-03-19T04:47:57.582Z,93.20
2019-03-19T04:50:02.003Z,93.00
2019-03-19T04:52:06.380Z,92.90
2019-03-19T04:54:10.787Z,92.90
2019-03-19T04:56:15.200Z,92.90
2019-03-19T04:58:19.610Z,93.00
2019-03-19T05:00:23.985Z,93.00
2019-03-19T05:02:28.327Z,92.80
2019-03-19T05:04:32.702Z,92.70
2019-03-19T05:06:37.101Z,92.80
2019-03-19T05:08:41.486Z,92.90
2019-03-19T05:10:45.894Z,93.10
2019-03-19T05:12:50.277Z,93.20
2019-03-19T05:14:54.662Z,93.40
2019-03-19T05:16:59.095Z,93.60
2019-03-19T05:19:03.495Z,93.80
2019-03-19T05:21:08.699Z,93.90
2019-03-19T05:23:13.095Z,93.80
2019-03-19T05:25:17.517Z,93.90
2019-03-19T05:27:21.898Z,93.90
2019-03-19T05:29:26.295Z,93.80
2019-03-19T05:31:30.689Z,93.80
2019-03-19T05:33:35.049Z,93.80
2019-03-19T05:35:39.570Z,93.70
2019-03-19T05:37:44.003Z,93.80
2019-03-19T05:39:48.418Z,93.80
2019-03-19T05:41:52.815Z,93.80
2019-03-19T05:43:57.229Z,93.70
2019-03-19T05:46:01.622Z,93.70
2019-03-19T05:48:06.091Z,93.60
2019-03-19T05:50:11.010Z,94.00
2019-03-19T05:52:15.439Z,94.00
2019-03-19T05:54:19.814Z,93.80
2019-03-19T05:56:24.268Z,93.70
2019-03-19T05:58:28.890Z,93.90
2019-03-19T06:00:33.734Z,93.80
2019-03-19T06:02:38.206Z,93.80
2019-03-19T06:04:42.619Z,93.80
2019-03-19T06:06:47.027Z,93.80
2019-03-19T06:08:51.389Z,93.70
2019-03-19T06:10:55.733Z,93.70
2019-03-19T06:13:00.114Z,93.90
2019-03-19T06:15:05.839Z,93.90
2019-03-19T06:17:10.262Z,94.00
2019-03-19T06:19:14.661Z,94.30
2019-03-19T06:21:19.043Z,94.40
2019-03-19T06:23:23.411Z,94.50
2019-03-19T06:25:27.812Z,94.50
2019-03-19T06:27:32.226Z,94.60
2019-03-19T06:29:36.640Z,94.70
2019-03-19T06:31:41.019Z,94.80
2019-03-19T06:33:45.485Z,95.00
2019-03-19T06:35:49.850Z,94.80
2019-03-19T06:37:54.283Z,95.00
2019-03-19T06:39:58.724Z,95.10
2019-03-19T06:42:03.101Z,95.30
2019-03-19T06:44:07.440Z,95.40
2019-03-19T06:46:11.972Z,95.40
2019-03-19T06:48:16.470Z,95.50
2019-03-19T06:50:21.745Z,95.60
2019-03-19T06:52:26.162Z,95.60
2019-03-19T06:54:30.519Z,95.50
2019-03-19T06:56:34.871Z,95.60
2019-03-19T06:58:39.319Z,95.60
2019-03-19T07:00:43.734Z,95.70
2019-03-19T07:02:48.182Z,95.70
2019-03-19T07:04:52.541Z,95.70
2019-03-19T07:06:56.947Z,95.70
2019-03-19T07:09:01.346Z,95.70
2019-03-19T07:11:05.747Z,95.60
2019-03-19T07:13:10.188Z,95.60
2019-03-19T07:15:15.019Z,95.60
2019-03-19T07:17:19.474Z,95.40
2019-03-19T07:19:23.942Z,95.50
2019-03-19T07:21:28.336Z,95.30
2019-03-19T07:23:32.726Z,95.40
2019-03-19T07:25:37.132Z,95.30
2019-03-19T07:27:41.618Z,95.30
2019-03-19T07:29:46.031Z,95.20
2019-03-19T07:31:50.518Z,95.10
2019-03-19T07:33:54.910Z,95.10
2019-03-19T07:35:59.348Z,95.10
2019-03-19T07:38:03.718Z,95.20
2019-03-19T07:40:09.342Z,95.00
2019-03-19T07:42:13.732Z,95.30
2019-03-19T07:44:18.195Z,94.90
2019-03-19T07:46:22.660Z,94.80
2019-03-19T07:48:27.061Z,94.80
2019-03-19T07:50:31.645Z,94.70
2019-03-19T07:52:36.055Z,94.50
2019-03-19T07:54:40.394Z,94.60
2019-03-19T07:56:44.787Z,94.50
2019-03-19T07:58:49.177Z,94.50
2019-03-19T08:00:53.530Z,94.50
2019-03-19T08:02:58.156Z,94.40
2019-03-19T08:05:02.579Z,94.40
2019-03-19T08:07:06.982Z,94.30
2019-03-19T08:09:11.416Z,94.30
2019-03-19T08:11:16.825Z,94.20
2019-03-19T08:13:20.199Z,94.20
2019-03-19T08:15:24.588Z,94.20
2019-03-19T08:17:28.946Z,94.00
2019-03-19T08:19:33.367Z,93.80
2019-03-19T08:21:37.747Z,93.90
2019-03-19T08:23:42.130Z,93.90
2019-03-19T08:25:46.513Z,93.90
2019-03-19T08:27:50.928Z,93.60
2019-03-19T08:29:55.277Z,93.40
2019-03-19T08:31:59.787Z,93.60
2019-03-19T08:34:04.191Z,93.70
2019-03-19T08:36:09.495Z,93.70
2019-03-19T08:38:13.047Z,93.60
2019-03-19T08:40:17.519Z,93.50
2019-03-19T08:42:21.906Z,93.10
2019-03-19T08:44:27.906Z,93.00
2019-03-19T08:46:31.271Z,92.80
2019-03-19T08:48:37.391Z,92.90
2019-03-19T08:50:40.073Z,92.80
2019-03-19T08:52:44.510Z,92.60
2019-03-19T08:54:48.875Z,92.80
2019-03-19T08:56:53.321Z,92.60
2019-03-19T08:59:05.570Z,92.00
2019-03-19T09:01:02.116Z,92.10
2019-03-19T09:03:06.521Z,92.10
2019-03-19T09:05:11.145Z,91.40
2019-03-19T09:07:15.569Z,91.10
2019-03-19T09:09:20.059Z,91.10
2019-03-19T09:11:24.507Z,91.60
2019-03-19T09:13:28.875Z,91.40
2019-03-19T09:15:33.203Z,90.60
2019-03-19T09:17:37.734Z,90.00
2019-03-19T09:19:42.223Z,90.50
2019-03-19T09:21:46.605Z,90.60
2019-03-19T09:23:50.965Z,89.10
2019-03-19T09:25:56.492Z,90.00
2019-03-19T09:27:59.696Z,87.70
2019-03-19T09:30:04.416Z,88.10
2019-03-19T09:32:08.833Z,89.40
2019-03-19T09:34:13.216Z,90.30
2019-03-19T09:36:17.589Z,86.60
2019-03-19T09:38:21.983Z,86.80
2019-03-19T09:40:26.346Z,84.90
2019-03-19T09:42:32.933Z,83.70
2019-03-19T09:44:37.359Z,81.70
2019-03-19T09:46:41.796Z,83.60
2019-03-19T09:48:47.740Z,84.60
2019-03-19T09:50:50.606Z,85.00
2019-03-19T09:52:55.006Z,85.40
2019-03-19T09:54:59.417Z,83.10
2019-03-19T09:57:03.830Z,82.00
2019-03-19T09:59:08.247Z,84.40
2019-03-19T10:01:12.583Z,80.80
2019-03-19T10:03:16.935Z,81.70
2019-03-19T10:05:21.371Z,79.40
2019-03-19T10:07:25.803Z,78.20
2019-03-19T10:09:30.137Z,78.70
2019-03-19T10:11:34.507Z,79.00
2019-03-19T10:13:39.010Z,76.80
2019-03-19T10:15:43.379Z,77.00
2019-03-19T10:17:47.786Z,78.00
2019-03-19T10:19:52.128Z,76.10
2019-03-19T10:21:56.598Z,77.40
2019-03-19T10:24:00.977Z,77.30
2019-03-19T10:26:05.414Z,70.50
2019-03-19T10:28:10.055Z,74.10
2019-03-19T10:30:16.795Z,72.40
2019-03-19T10:32:21.150Z,71.80
2019-03-19T10:34:25.536Z,72.50
2019-03-19T10:36:29.990Z,73.90
2019-03-19T10:38:34.307Z,70.50
2019-03-19T10:40:38.676Z,71.20
2019-03-19T10:42:43.020Z,72.90
2019-03-19T10:44:47.350Z,71.30
2019-03-19T10:46:51.763Z,67.30
2019-03-19T10:48:56.174Z,69.00
2019-03-19T10:51:00.534Z,68.70
2019-03-19T10:53:04.992Z,73.00
2019-03-19T10:55:09.424Z,72.30
2019-03-19T10:57:13.800Z,67.90
2019-03-19T10:59:18.189Z,68.90
2019-03-19T11:01:22.606Z,69.70
2019-03-19T11:03:26.954Z,63.10
2019-03-19T11:05:31.347Z,62.00
2019-03-19T11:07:35.758Z,61.40
2019-03-19T11:09:40.168Z,61.40
2019-03-19T11:11:44.630Z,59.10
2019-03-19T11:13:49.055Z,58.00
2019-03-19T11:15:54.394Z,56.60
2019-03-19T11:17:58.791Z,56.10
2019-03-19T11:20:03.214Z,55.50
2019-03-19T11:22:07.702Z,55.80
2019-03-19T11:24:12.062Z,55.60
2019-03-19T11:26:16.474Z,55.50
2019-03-19T11:28:20.786Z,56.90
2019-03-19T11:30:25.125Z,54.90
2019-03-19T11:32:29.542Z,56.00
2019-03-19T11:34:33.878Z,56.00
2019-03-19T11:36:38.217Z,56.70
2019-03-19T11:38:42.579Z,57.70
2019-03-19T11:40:46.985Z,56.00
2019-03-19T11:42:52.029Z,58.10
2019-03-19T11:44:56.432Z,56.50
2019-03-19T11:47:00.809Z,53.10
2019-03-19T11:49:05.203Z,52.80
2019-03-19T11:51:10.990Z,55.40
2019-03-19T11:53:16.431Z,56.10
2019-03-19T11:55:20.910Z,54.00
2019-03-19T11:57:25.325Z,52.00
2019-03-19T11:59:29.810Z,53.20
2019-03-19T12:01:34.202Z,57.00
2019-03-19T12:03:38.576Z,53.70
2019-03-19T12:05:42.999Z,55.40
2019-03-19T12:07:47.385Z,53.50
2019-03-19T12:09:51.755Z,51.90
2019-03-19T12:11:56.150Z,51.20
2019-03-19T12:14:00.507Z,51.80
2019-03-19T12:16:04.912Z,53.80
2019-03-19T12:18:09.338Z,52.60
2019-03-19T12:20:13.781Z,52.70
2019-03-19T12:22:18.104Z,52.70
2019-03-19T12:24:22.590Z,52.80
2019-03-19T12:26:26.960Z,52.80
2019-03-19T12:28:39.228Z,55.40
2019-03-19T12:30:35.855Z,53.00
2019-03-19T12:32:40.257Z,49.50
2019-03-19T12:34:45.277Z,46.30
2019-03-19T12:36:50.321Z,47.00
2019-03-19T12:38:54.674Z,46.20
2019-03-19T12:40:59.034Z,48.00
2019-03-19T12:43:03.504Z,47.60
2019-03-19T12:45:09.163Z,49.80
2019-03-19T12:47:13.535Z,50.50
2019-03-19T12:49:18.418Z,46.90
2019-03-19T12:51:22.775Z,46.20
2019-03-19T12:53:27.175Z,46.30
2019-03-19T12:55:31.689Z,48.80
2019-03-19T12:57:37.021Z,48.70
2019-03-19T12:59:42.605Z,47.40
2019-03-19T13:01:45.990Z,46.50
2019-03-19T13:03:50.430Z,49.30
2019-03-19T13:05:54.788Z,50.50
2019-03-19T13:07:59.162Z,48.70
2019-03-19T13:10:04.735Z,52.10
2019-03-19T13:12:09.094Z,46.80
2019-03-19T13:14:13.565Z,47.70
2019-03-19T13:16:17.898Z,48.20
2019-03-19T13:18:22.263Z,49.70
2019-03-19T13:20:26.692Z,52.10
2019-03-19T13:22:31.215Z,51.00
2019-03-19T13:24:35.577Z,51.40
2019-03-19T13:26:39.994Z,50.70
2019-03-19T13:28:44.351Z,50.30
2019-03-19T13:30:48.817Z,53.00
2019-03-19T13:32:53.227Z,52.50
2019-03-19T13:34:57.550Z,53.70
2019-03-19T13:37:01.914Z,53.50
2019-03-19T13:39:08.448Z,49.50
2019-03-19T13:41:12.865Z,51.80
2019-03-19T13:43:17.259Z,49.60
2019-03-19T13:45:22.235Z,50.50
2019-03-19T13:47:26.596Z,52.50
2019-03-19T13:49:31.018Z,49.40
2019-03-19T13:51:35.427Z,50.90
2019-03-19T13:53:39.839Z,50.50
2019-03-19T13:55:44.239Z,51.80
2019-03-19T13:57:48.582Z,51.40
2019-03-19T14:02:02.627Z,51.50
2019-03-19T14:04:07.098Z,52.70
2019-03-19T14:06:11.410Z,52.10
2019-03-19T14:08:17.903Z,52.60
2019-03-19T14:10:20.276Z,52.20
2019-03-19T14:12:24.681Z,51.50
2019-03-19T14:14:29.100Z,51.30
2019-03-19T14:16:33.469Z,53.30
2019-03-19T14:18:37.854Z,53.20
2019-03-19T14:20:42.262Z,52.20
2019-03-19T14:22:46.665Z,51.70
2019-03-19T14:24:51.074Z,52.70
2019-03-19T14:26:55.402Z,49.70
2019-03-19T14:28:59.738Z,52.30
2019-03-19T14:31:08.993Z,50.40
2019-03-19T14:33:09.211Z,52.30
2019-03-19T14:35:13.673Z,51.20
2019-03-19T14:37:18.072Z,52.20
2019-03-19T14:39:22.434Z,50.90
2019-03-19T14:41:26.802Z,53.00
2019-03-19T14:43:31.188Z,54.20
2019-03-19T14:45:35.606Z,54.80
2019-03-19T14:47:40.029Z,53.50
2019-03-19T14:49:47.723Z,50.90
2019-03-19T14:51:48.930Z,54.00
2019-03-19T14:53:53.338Z,50.80
2019-03-19T14:55:57.690Z,50.10
2019-03-19T14:58:02.100Z,52.20
2019-03-19T15:00:07.971Z,52.40
2019-03-19T15:02:12.310Z,52.00
2019-03-19T15:04:16.738Z,51.60
2019-03-19T15:06:21.101Z,52.00
2019-03-19T15:08:25.648Z,52.40
2019-03-19T15:10:32.540Z,48.50
2019-03-19T15:12:40.147Z,46.20
2019-03-19T15:14:47.339Z,48.40
2019-03-19T15:17:04.487Z,48.50
2019-03-19T15:19:03.619Z,48.90
2019-03-19T15:21:11.183Z,49.90
2019-03-19T15:23:18.334Z,49.30
2019-03-19T15:25:23.363Z,50.00
2019-03-19T15:27:27.789Z,50.50
2019-03-19T15:29:32.208Z,47.60
2019-03-19T15:31:36.634Z,48.70
2019-03-19T15:33:41.069Z,47.90
2019-03-19T15:35:45.471Z,48.40
2019-03-19T15:37:49.844Z,46.70
2019-03-19T15:39:54.252Z,49.70
2019-03-19T15:41:58.659Z,50.40
2019-03-19T15:44:03.076Z,52.00
2019-03-19T15:46:07.495Z,50.40
2019-03-19T15:48:11.881Z,48.70
2019-03-19T15:50:16.398Z,50.70
2019-03-19T15:52:20.834Z,50.90
2019-03-19T15:54:26.694Z,49.30
2019-03-19T15:56:29.699Z,49.80
2019-03-19T15:58:34.063Z,49.00
2019-03-19T16:00:38.455Z,49.50
2019-03-19T16:02:43.108Z,49.50
2019-03-19T16:04:47.481Z,49.30
2019-03-19T16:06:51.912Z,48.70
2019-03-19T16:08:56.346Z,47.10
2019-03-19T16:11:00.710Z,45.80
2019-03-19T16:13:05.129Z,46.50
2019-03-19T16:15:10.975Z,48.50
2019-03-19T16:17:15.350Z,47.70
2019-03-19T16:19:19.781Z,48.60
2019-03-19T16:21:24.181Z,50.10
2019-03-19T16:23:28.550Z,48.80
2019-03-19T16:25:32.933Z,49.60
2019-03-19T16:27:37.292Z,48.10
2019-03-19T16:29:41.698Z,46.60
2019-03-19T16:31:50.941Z,48.20
2019-03-19T16:33:50.425Z,48.90
2019-03-19T16:35:54.873Z,47.20
2019-03-19T16:37:59.266Z,47.70
2019-03-19T16:40:03.802Z,46.60
2019-03-19T16:42:08.226Z,47.10
2019-03-19T16:44:12.559Z,46.30
2019-03-19T16:46:16.886Z,47.70
2019-03-19T16:48:21.309Z,47.70
2019-03-19T16:50:25.738Z,48.30
2019-03-19T16:52:30.102Z,47.50
2019-03-19T16:54:34.661Z,47.20
2019-03-19T16:56:39.059Z,47.60
2019-03-19T16:58:43.791Z,49.80
2019-03-19T17:00:48.177Z,50.20
2019-03-19T17:02:52.522Z,50.20
2019-03-19T17:04:56.866Z,51.90
2019-03-19T17:07:01.317Z,51.60
2019-03-19T17:09:07.520Z,50.50
2019-03-19T17:11:11.871Z,51.80
2019-03-19T17:13:16.303Z,52.60
2019-03-19T17:15:20.763Z,53.40
2019-03-19T17:17:25.214Z,53.80
2019-03-19T17:19:29.689Z,53.70
2019-03-19T17:21:34.122Z,53.60
2019-03-19T17:23:38.640Z,54.60
2019-03-19T17:25:43.206Z,55.10
2019-03-19T17:27:47.714Z,55.80
2019-03-19T17:29:52.189Z,56.90
2019-03-19T17:31:56.566Z,56.60
2019-03-19T17:34:00.960Z,56.80
2019-03-19T17:36:05.407Z,57.00
2019-03-19T17:38:09.921Z,57.20
2019-03-19T17:40:19.221Z,57.90
2019-03-19T17:42:23.849Z,58.20
2019-03-19T17:44:28.247Z,57.90
2019-03-19T17:46:32.672Z,58.60
2019-03-19T17:48:37.123Z,58.30
2019-03-19T17:50:41.591Z,59.10
2019-03-19T17:52:46.230Z,59.30
2019-03-19T17:54:50.596Z,59.70
2019-03-19T17:56:55.113Z,59.90
2019-03-19T17:58:59.470Z,60.40
2019-03-19T18:01:04.054Z,60.30
2019-03-19T18:03:08.538Z,59.90
2019-03-19T18:05:12.969Z,61.30
2019-03-19T18:07:17.435Z,60.60
2019-03-19T18:09:21.899Z,61.10
2019-03-19T18:11:26.347Z,62.20
2019-03-19T18:13:30.759Z,61.50
2019-03-19T18:15:35.185Z,62.10
2019-03-19T18:17:39.672Z,62.30
2019-03-19T18:19:44.179Z,62.30
2019-03-19T18:21:48.606Z,62.40
2019-03-19T18:23:53.017Z,64.40
2019-03-19T18:25:57.402Z,63.00
2019-03-19T18:28:01.837Z,64.30
2019-03-19T18:30:07.408Z,63.30
2019-03-19T18:32:11.927Z,64.50
2019-03-19T18:34:16.346Z,64.20
2019-03-19T18:36:20.781Z,64.70
2019-03-19T18:38:25.201Z,64.30
2019-03-19T18:40:29.706Z,63.50
2019-03-19T18:42:34.329Z,64.60
2019-03-19T18:44:38.782Z,65.00
2019-03-19T18:46:43.174Z,65.40
2019-03-19T18:48:47.608Z,65.90
2019-03-19T18:50:52.135Z,65.00
2019-03-19T18:52:56.624Z,66.10
2019-03-19T18:55:01.111Z,66.50
2019-03-19T18:57:05.569Z,67.20
2019-03-19T18:59:10.158Z,67.20
2019-03-19T19:01:14.724Z,67.70
2019-03-19T19:03:19.132Z,67.90
2019-03-19T19:05:23.692Z,68.50
2019-03-19T19:07:28.142Z,69.10
2019-03-19T19:09:32.583Z,68.60
2019-03-19T19:11:37.053Z,68.90
2019-03-19T19:13:41.483Z,69.40
2019-03-19T19:15:45.919Z,69.60
2019-03-19T19:17:50.354Z,69.80
2019-03-19T19:19:54.735Z,70.00
2019-03-19T19:21:59.198Z,70.00
2019-03-19T19:24:03.757Z,71.10
2019-03-19T19:26:09.313Z,71.70
2019-03-19T19:28:13.755Z,72.40
2019-03-19T19:30:18.877Z,72.70
2019-03-19T19:32:26.130Z,73.50
2019-03-19T19:34:31.417Z,74.30
2019-03-19T19:36:35.806Z,74.40
2019-03-19T19:38:40.299Z,75.00
2019-03-19T19:40:44.803Z,75.20
2019-03-19T19:42:49.265Z,75.50
2019-03-19T19:44:53.675Z,75.80
2019-03-19T19:46:58.354Z,76.20
2019-03-19T19:49:02.970Z,76.20
2019-03-19T19:51:07.585Z,76.20
2019-03-19T19:53:11.994Z,76.60
2019-03-19T19:55:16.434Z,77.00
2019-03-19T19:57:20.911Z,76.40
2019-03-19T19:59:25.352Z,77.20
2019-03-19T20:01:29.844Z,77.20
2019-03-19T20:03:34.293Z,77.40
2019-03-19T20:05:38.801Z,77.30
2019-03-19T20:07:43.326Z,77.60
2019-03-19T20:09:47.716Z,78.80
2019-03-19T20:11:52.189Z,78.60
2019-03-19T20:13:56.624Z,78.90
2019-03-19T20:16:01.033Z,79.30
2019-03-19T20:18:05.511Z,79.80
2019-03-19T20:20:11.863Z,80.00
2019-03-19T20:22:16.353Z,80.40
2019-03-19T20:24:21.839Z,80.60
2019-03-19T20:26:26.268Z,80.90
2019-03-19T20:28:30.726Z,81.80
2019-03-19T20:30:35.246Z,81.70
2019-03-19T20:32:39.806Z,81.80
2019-03-19T20:34:44.194Z,82.00
2019-03-19T20:36:48.723Z,82.10
2019-03-19T20:38:53.158Z,82.20
2019-03-19T20:40:57.662Z,82.30
2019-03-19T20:43:02.032Z,82.70
2019-03-19T20:45:06.998Z,83.00
2019-03-19T20:47:11.898Z,83.20
2019-03-19T20:49:16.370Z,83.40
2019-03-19T20:51:20.793Z,83.40
2019-03-19T20:53:25.202Z,83.50
2019-03-19T20:55:29.764Z,83.70
2019-03-19T20:57:34.265Z,83.80
2019-03-19T20:59:38.664Z,84.00
2019-03-19T21:01:43.145Z,84.30
2019-03-19T21:03:47.546Z,84.30
2019-03-19T21:05:52.005Z,84.50
2019-03-19T21:07:57.316Z,85.10
2019-03-19T21:10:01.923Z,84.80
2019-03-19T21:12:06.363Z,85.00
2019-03-19T21:14:10.816Z,84.70
2019-03-19T21:16:15.353Z,84.50
2019-03-19T21:18:19.795Z,85.30
2019-03-19T21:20:25.302Z,84.50
2019-03-19T21:22:29.731Z,84.20
2019-03-19T21:24:34.166Z,84.20
2019-03-19T21:26:38.783Z,84.20
2019-03-19T21:28:43.306Z,84.40
2019-03-19T21:30:47.709Z,84.20
2019-03-19T21:32:52.280Z,84.20
2019-03-19T21:34:56.672Z,84.00
2019-03-19T21:37:01.102Z,84.10
2019-03-19T21:39:07.466Z,84.20
2019-03-19T21:41:11.983Z,84.50
2019-03-19T21:43:18.933Z,84.60
2019-03-19T21:45:31.362Z,84.50
2019-03-19T21:47:50.737Z,84.50
2019-03-19T21:50:01.434Z,85.00
2019-03-19T21:52:13.870Z,85.40
2019-03-19T21:54:27.374Z,86.80
2019-03-19T21:56:37.580Z,86.50
2019-03-19T21:58:57.050Z,86.60
2019-03-19T22:01:04.167Z,86.60
2019-03-19T22:03:11.970Z,86.60
2019-03-19T22:05:18.882Z,86.80
2019-03-19T22:07:26.046Z,86.80
2019-03-19T22:09:33.251Z,86.60
2019-03-19T22:11:40.912Z,86.90
2019-03-19T22:13:48.179Z,87.00
2019-03-19T22:16:00.155Z,86.80
2019-03-19T22:18:07.907Z,86.40
2019-03-19T22:20:15.807Z,86.00
2019-03-19T22:22:22.550Z,85.90
2019-03-19T22:24:29.134Z,86.50
2019-03-19T22:26:36.579Z,86.60
2019-03-19T22:28:43.867Z,86.50
2019-03-19T22:30:51.827Z,86.80
2019-03-19T22:32:58.227Z,86.80
2019-03-19T22:35:05.307Z,87.00
2019-03-19T22:37:12.791Z,87.40
2019-03-19T22:39:19.421Z,87.60
2019-03-19T22:41:26.808Z,88.00
2019-03-19T22:43:34.586Z,88.20
2019-03-19T22:45:41.424Z,88.30
2019-03-19T22:47:49.129Z,88.40
2019-03-19T22:49:55.983Z,88.60
2019-03-19T22:52:03.371Z,88.70
2019-03-19T22:54:10.845Z,88.60
2019-03-19T22:56:18.128Z,88.50
2019-03-19T22:58:24.971Z,88.60
2019-03-19T23:00:36.091Z,89.10
2019-03-19T23:02:42.939Z,89.20
2019-03-19T23:04:50.327Z,89.40
2019-03-19T23:06:57.245Z,89.90
2019-03-19T23:09:04.638Z,89.80
2019-03-19T23:11:11.248Z,90.00
2019-03-19T23:13:19.214Z,90.20
2019-03-19T23:15:26.778Z,90.40
2019-03-19T23:17:34.533Z,90.50
2019-03-19T23:19:41.598Z,90.40
2019-03-19T23:21:47.527Z,90.30
2019-03-19T23:23:53.826Z,90.40
2019-03-19T23:26:00.027Z,90.30
2019-03-19T23:28:04.821Z,90.20
2019-03-19T23:30:09.281Z,90.30
2019-03-19T23:32:13.727Z,90.30
2019-03-19T23:34:18.067Z,90.30
2019-03-19T23:36:23.004Z,90.40
2019-03-19T23:38:27.374Z,90.60
2019-03-19T23:40:31.759Z,90.80
2019-03-19T23:42:36.194Z,90.90
2019-03-19T23:44:40.646Z,91.10
2019-03-19T23:46:44.992Z,91.10
2019-03-19T23:48:49.352Z,91.00
2019-03-19T23:50:53.812Z,90.80
2019-03-19T23:52:58.193Z,90.70
2019-03-19T23:55:02.627Z,90.80
2019-03-19T23:57:06.988Z,90.50
2019-03-19T23:59:11.393Z,90.10
